createdAt,value
2017-12-03T12:05:51.629Z,5216.00
2017-12-03T12:06:51.515Z,5160.00
2017-12-03T12:08:44.336Z,4980.00
2017-12-03T12:09:44.294Z,5180.00
2017-12-03T12:11:37.114Z,4924.00
2017-12-03T12:12:37.053Z,5080.00
2017-12-03T12:14:29.860Z,5736.00
2017-12-03T12:15:30.471Z,5984.00
2017-12-03T12:17:22.656Z,5092.00
2017-12-03T12:18:22.588Z,4660.00
2017-12-03T12:20:15.401Z,4192.00
2017-12-03T12:21:15.356Z,4032.00
2017-12-03T12:23:09.028Z,3856.00
2017-12-03T12:24:08.320Z,3800.00
2017-12-03T12:26:01.137Z,3868.00
2017-12-03T12:27:01.131Z,3832.00
2017-12-03T12:28:53.927Z,3812.00
2017-12-03T12:29:53.895Z,3804.00
2017-12-03T12:31:46.666Z,3564.00
2017-12-03T12:32:46.621Z,3404.00
2017-12-03T12:34:39.489Z,3172.00
2017-12-03T12:35:39.414Z,3076.00
2017-12-03T12:37:32.244Z,2876.00
2017-12-03T12:38:32.178Z,2792.00
2017-12-03T12:40:25.889Z,2696.00
2017-12-03T12:41:24.971Z,2592.00
2017-12-03T12:43:17.792Z,2604.00
2017-12-03T12:44:17.733Z,2596.00
2017-12-03T12:46:10.567Z,2556.00
2017-12-03T12:47:10.516Z,2428.00
2017-12-03T12:49:04.029Z,2392.00
2017-12-03T12:50:03.283Z,2352.00
2017-12-03T12:51:56.146Z,2128.00
2017-12-03T12:52:56.064Z,2036.00
2017-12-03T12:54:48.887Z,1988.00
2017-12-03T12:55:48.834Z,1928.00
2017-12-03T12:57:41.677Z,1676.00
2017-12-03T12:58:44.255Z,1680.00
2017-12-03T13:00:34.422Z,1600.00
2017-12-03T13:01:34.398Z,1640.00
2017-12-03T13:03:27.888Z,1484.00
2017-12-03T13:04:27.152Z,1372.00
2017-12-03T13:06:19.999Z,1296.00
2017-12-03T13:07:19.957Z,1268.00
2017-12-03T13:09:12.813Z,1204.00
2017-12-03T13:10:12.745Z,1204.00
2017-12-03T13:12:05.563Z,1240.00
2017-12-03T13:13:05.502Z,1308.00
2017-12-03T13:14:58.343Z,1288.00
2017-12-03T13:15:58.265Z,1364.00
2017-12-03T13:17:51.089Z,1356.00
2017-12-03T13:18:51.025Z,1428.00
2017-12-03T13:20:43.893Z,1488.00
2017-12-03T13:21:43.818Z,1476.00
2017-12-03T13:23:36.678Z,1436.00
2017-12-03T13:24:38.245Z,1504.00
2017-12-03T13:26:30.060Z,1612.00
2017-12-03T13:27:29.416Z,1544.00
2017-12-03T13:29:23.081Z,1464.00
2017-12-03T13:30:23.025Z,1568.00
2017-12-03T13:33:47.395Z,1532.00
2017-12-03T13:34:47.360Z,1492.00
2017-12-03T13:36:40.148Z,1548.00
2017-12-03T13:37:40.096Z,1552.00
2017-12-03T13:39:32.915Z,1400.00
2017-12-03T13:40:32.873Z,1324.00
2017-12-03T13:42:25.678Z,1268.00
2017-12-03T13:43:25.629Z,1280.00
2017-12-03T13:45:18.467Z,1300.00
2017-12-03T13:46:18.411Z,1248.00
2017-12-03T13:48:11.232Z,1256.00
2017-12-03T13:49:11.185Z,1272.00
2017-12-03T13:51:03.997Z,1196.00
2017-12-03T13:52:03.939Z,1196.00
2017-12-03T13:53:56.760Z,1024.00
2017-12-03T13:54:56.710Z,944.00
2017-12-03T13:56:49.564Z,852.00
2017-12-03T13:57:49.478Z,768.00
2017-12-03T13:59:42.343Z,764.00
2017-12-03T14:00:42.252Z,744.00
2017-12-03T14:02:35.083Z,712.00
2017-12-03T14:03:35.026Z,624.00
2017-12-03T14:05:27.828Z,556.00
2017-12-03T14:06:27.779Z,540.00
2017-12-03T14:08:20.704Z,492.00
2017-12-03T14:09:20.537Z,476.00
2017-12-03T14:11:13.358Z,424.00
2017-12-03T14:12:13.311Z,400.00
2017-12-03T14:14:06.127Z,372.00
2017-12-03T14:15:06.084Z,364.00
2017-12-03T14:16:59.882Z,332.00
2017-12-03T14:17:59.842Z,308.00
2017-12-03T14:19:52.680Z,312.00
2017-12-03T14:20:52.612Z,304.00
2017-12-03T14:22:46.031Z,284.00
2017-12-03T14:23:45.390Z,272.00
2017-12-03T14:25:38.207Z,256.00
2017-12-03T14:26:38.160Z,248.00
2017-12-03T14:28:30.963Z,244.00
2017-12-03T14:29:30.921Z,240.00
2017-12-03T14:31:23.771Z,212.00
2017-12-03T14:32:23.704Z,188.00
2017-12-03T14:34:16.535Z,176.00
2017-12-03T14:35:16.469Z,168.00
2017-12-03T14:37:09.298Z,152.00
2017-12-03T14:38:09.242Z,140.00
2017-12-03T14:40:02.054Z,132.00
2017-12-03T14:41:02.009Z,124.00
2017-12-03T14:42:54.826Z,112.00
2017-12-03T14:43:54.791Z,108.00
2017-12-03T14:45:47.634Z,92.00
2017-12-03T14:46:47.565Z,84.00
2017-12-03T14:48:40.366Z,72.00
2017-12-03T14:49:40.314Z,68.00
2017-12-03T14:51:33.129Z,60.00
2017-12-03T14:52:33.704Z,56.00
2017-12-03T14:53:33.036Z,52.00
2017-12-03T14:54:32.995Z,52.00
2017-12-03T14:55:32.954Z,52.00
2017-12-03T14:56:32.929Z,52.00
2017-12-03T14:57:32.893Z,44.00
2017-12-03T14:58:32.832Z,44.00
2017-12-03T14:59:32.788Z,40.00
2017-12-03T15:00:32.745Z,36.00
2017-12-03T15:01:32.718Z,36.00
2017-12-03T15:02:32.656Z,36.00
2017-12-03T15:03:34.206Z,32.00
2017-12-03T15:04:32.579Z,28.00
2017-12-03T15:05:34.199Z,28.00
2017-12-03T15:06:32.498Z,24.00
2017-12-03T15:07:32.448Z,24.00
2017-12-03T15:08:32.417Z,20.00
2017-12-03T15:09:32.366Z,20.00
2017-12-03T15:10:33.205Z,16.00
2017-12-03T15:11:32.284Z,16.00
2017-12-03T15:12:32.261Z,12.00
2017-12-03T15:13:32.193Z,8.00
2017-12-03T15:14:32.155Z,8.00
2017-12-03T15:15:32.114Z,4.00
2017-12-03T15:16:32.070Z,8.00
2017-12-03T15:17:32.027Z,4.00
2017-12-03T15:18:31.983Z,8.00
2017-12-03T15:19:31.943Z,4.00
2017-12-03T15:20:31.903Z,4.00
2017-12-03T15:21:31.855Z,0.00
2017-12-03T15:22:31.826Z,4.00
2017-12-03T15:23:31.775Z,4.00
2017-12-03T15:24:31.732Z,4.00
2017-12-03T15:25:31.699Z,4.00
2017-12-03T15:26:31.675Z,0.00
2017-12-03T15:27:31.609Z,0.00
2017-12-03T15:28:31.567Z,0.00
2017-12-03T15:29:31.521Z,0.00
2017-12-03T15:30:31.485Z,0.00
2017-12-03T15:31:31.445Z,0.00
2017-12-03T15:32:31.399Z,0.00
2017-12-03T15:33:31.375Z,0.00
2017-12-03T15:34:31.322Z,0.00
2017-12-03T15:35:31.274Z,0.00
2017-12-03T15:36:33.222Z,0.00
2017-12-03T15:37:31.246Z,0.00
2017-12-03T15:38:31.141Z,0.00
2017-12-03T15:39:31.100Z,0.00
2017-12-03T15:40:31.060Z,0.00
2017-12-03T15:41:31.017Z,0.00
2017-12-03T15:42:30.984Z,0.00
2017-12-03T15:43:30.931Z,0.00
2017-12-03T15:44:30.899Z,0.00
2017-12-03T15:45:31.734Z,0.00
2017-12-03T15:46:30.813Z,0.00
2017-12-03T15:47:30.768Z,0.00
2017-12-03T15:48:30.729Z,0.00
2017-12-03T15:49:30.675Z,0.00
2017-12-03T15:50:30.641Z,0.00
2017-12-03T15:51:30.606Z,0.00
2017-12-03T15:52:30.559Z,0.00
2017-12-03T15:53:30.518Z,0.00
2017-12-03T15:54:30.472Z,0.00
2017-12-03T15:55:30.427Z,0.00
2017-12-03T15:56:30.385Z,0.00
2017-12-03T15:57:30.403Z,0.00
2017-12-03T15:58:30.299Z,0.00
2017-12-03T15:59:30.256Z,0.00
2017-12-03T16:00:30.219Z,0.00
2017-12-03T16:01:30.171Z,0.00
2017-12-03T16:02:30.137Z,0.00
2017-12-03T16:03:30.088Z,0.00
2017-12-03T16:04:30.047Z,0.00
2017-12-03T16:05:30.002Z,0.00
2017-12-03T16:06:29.961Z,0.00
2017-12-03T16:07:29.919Z,0.00
2017-12-03T16:08:29.874Z,0.00
2017-12-03T16:09:29.855Z,0.00
2017-12-03T16:10:29.790Z,0.00
2017-12-03T16:11:29.751Z,0.00
2017-12-03T16:12:29.703Z,0.00
2017-12-03T16:13:29.669Z,0.00
2017-12-03T16:14:29.619Z,0.00
2017-12-03T16:15:29.597Z,0.00
2017-12-03T16:16:29.538Z,0.00
2017-12-03T16:17:29.494Z,0.00
2017-12-03T16:18:29.467Z,0.00
2017-12-03T16:19:29.409Z,0.00
2017-12-03T16:20:29.369Z,0.00
2017-12-03T16:21:29.322Z,0.00
2017-12-03T16:22:29.285Z,0.00
2017-12-03T16:23:29.244Z,0.00
2017-12-03T16:24:29.202Z,0.00
2017-12-03T16:25:29.157Z,0.00
2017-12-03T16:26:29.116Z,0.00
2017-12-03T16:27:29.072Z,0.00
2017-12-03T16:28:29.030Z,0.00
2017-12-03T16:29:28.997Z,0.00
2017-12-03T16:30:28.949Z,0.00
2017-12-03T16:31:28.913Z,0.00
2017-12-03T16:32:28.861Z,0.00
2017-12-03T16:33:28.816Z,0.00
2017-12-03T16:34:28.795Z,0.00
2017-12-03T16:35:28.755Z,0.00
2017-12-03T16:36:28.692Z,0.00
2017-12-03T16:37:28.650Z,0.00
2017-12-03T16:38:28.606Z,0.00
2017-12-03T16:39:28.572Z,0.00
2017-12-03T16:40:28.523Z,0.00
2017-12-03T16:41:28.480Z,0.00
2017-12-03T16:42:28.444Z,0.00
2017-12-03T16:43:28.411Z,0.00
2017-12-03T16:44:28.363Z,0.00
2017-12-03T16:45:28.314Z,0.00
2017-12-03T16:46:28.269Z,0.00
2017-12-03T16:47:28.225Z,0.00
2017-12-03T16:48:28.191Z,0.00
2017-12-03T16:49:28.150Z,0.00
2017-12-03T16:50:28.113Z,0.00
2017-12-03T16:51:28.062Z,0.00
2017-12-03T16:52:28.042Z,0.00
2017-12-03T16:53:27.974Z,0.00
2017-12-03T16:54:27.932Z,0.00
2017-12-03T16:55:27.893Z,0.00
2017-12-03T16:56:27.865Z,0.00
2017-12-03T16:57:27.805Z,0.00
2017-12-03T16:58:27.770Z,0.00
2017-12-03T16:59:27.739Z,0.00
2017-12-03T17:00:27.682Z,0.00
2017-12-03T17:01:27.648Z,0.00
2017-12-03T17:02:27.607Z,0.00
2017-12-03T17:03:27.555Z,0.00
2017-12-03T17:04:27.514Z,0.00
2017-12-03T17:05:27.469Z,0.00
2017-12-03T17:06:27.434Z,0.00
2017-12-03T17:07:27.388Z,0.00
2017-12-03T17:08:27.344Z,0.00
2017-12-03T17:09:27.297Z,0.00
2017-12-03T17:10:27.265Z,0.00
2017-12-03T17:11:27.216Z,0.00
2017-12-03T17:12:27.174Z,0.00
2017-12-03T17:13:27.129Z,0.00
2017-12-03T17:14:27.102Z,0.00
2017-12-03T17:15:27.054Z,0.00
2017-12-03T17:16:27.014Z,0.00
2017-12-03T17:17:26.969Z,0.00
2017-12-03T17:18:26.934Z,0.00
2017-12-03T17:19:26.883Z,0.00
2017-12-03T17:20:26.846Z,0.00
2017-12-03T17:21:26.798Z,0.00
2017-12-03T17:22:26.755Z,0.00
2017-12-03T17:23:26.708Z,0.00
2017-12-03T17:24:26.665Z,0.00
2017-12-03T17:25:26.689Z,0.00
2017-12-03T17:26:28.239Z,0.00
2017-12-03T17:27:26.551Z,0.00
2017-12-03T17:28:26.518Z,0.00
2017-12-03T17:29:26.499Z,0.00
2017-12-03T17:30:26.427Z,0.00
2017-12-03T17:31:26.390Z,0.00
2017-12-03T17:32:26.333Z,0.00
2017-12-03T17:33:26.332Z,0.00
2017-12-03T17:34:26.255Z,0.00
2017-12-03T17:35:26.214Z,0.00
2017-12-03T17:36:26.168Z,0.00
2017-12-03T17:37:26.127Z,0.00
2017-12-03T17:38:26.079Z,0.00
2017-12-03T17:39:26.083Z,0.00
2017-12-03T17:40:26.025Z,0.00
2017-12-03T17:41:25.979Z,0.00
2017-12-03T17:42:25.944Z,0.00
2017-12-03T17:43:25.877Z,0.00
2017-12-03T17:44:25.838Z,0.00
2017-12-03T17:45:25.809Z,0.00
2017-12-03T17:46:25.761Z,0.00
2017-12-03T17:47:25.703Z,0.00
2017-12-03T17:48:25.681Z,0.00
2017-12-03T17:49:25.628Z,0.00
2017-12-03T17:50:25.593Z,0.00
2017-12-03T17:51:25.537Z,0.00
2017-12-03T17:52:25.503Z,0.00
2017-12-03T17:53:25.455Z,0.00
2017-12-03T17:54:25.464Z,0.00
2017-12-03T17:55:25.362Z,0.00
2017-12-03T17:56:25.345Z,0.00
2017-12-03T17:57:26.303Z,0.00
2017-12-03T17:58:25.282Z,0.00
2017-12-03T17:59:25.730Z,0.00
2017-12-03T18:00:25.807Z,0.00
2017-12-03T18:01:25.313Z,0.00
2017-12-03T18:02:25.958Z,0.00
2017-12-03T18:03:25.510Z,0.00
2017-12-03T18:04:25.051Z,0.00
2017-12-03T18:05:25.027Z,0.00
2017-12-03T18:06:25.217Z,0.00
2017-12-03T18:07:24.957Z,0.00
2017-12-03T18:08:24.873Z,0.00
2017-12-03T18:09:24.803Z,0.00
2017-12-03T18:10:24.747Z,0.00
2017-12-03T18:11:25.262Z,0.00
2017-12-03T18:12:24.661Z,0.00
2017-12-03T18:13:24.605Z,0.00
2017-12-03T18:14:24.576Z,0.00
2017-12-03T18:15:24.543Z,0.00
2017-12-03T18:16:24.489Z,0.00
2017-12-03T18:17:24.438Z,0.00
2017-12-03T18:18:24.396Z,0.00
2017-12-03T18:19:24.354Z,0.00
2017-12-03T18:20:24.317Z,0.00
2017-12-03T18:21:24.273Z,0.00
2017-12-03T18:22:24.228Z,0.00
2017-12-03T18:23:24.185Z,0.00
2017-12-03T18:24:24.148Z,0.00
2017-12-03T18:25:24.104Z,0.00
2017-12-03T18:26:24.058Z,0.00
2017-12-03T18:27:24.018Z,0.00
2017-12-03T18:28:24.020Z,0.00
2017-12-03T18:29:23.940Z,0.00
2017-12-03T18:30:23.891Z,0.00
2017-12-03T18:31:23.850Z,0.00
2017-12-03T18:32:23.815Z,0.00
2017-12-03T18:33:23.766Z,0.00
2017-12-03T18:34:23.736Z,0.00
2017-12-03T18:35:23.683Z,0.00
2017-12-03T18:36:23.645Z,0.00
2017-12-03T18:37:23.608Z,0.00
2017-12-03T18:38:23.556Z,0.00
2017-12-03T18:39:23.511Z,0.00
2017-12-03T18:40:23.478Z,0.00
2017-12-03T18:41:24.250Z,0.00
2017-12-03T18:42:23.394Z,0.00
2017-12-03T18:43:23.365Z,0.00
2017-12-03T18:44:23.320Z,0.00
2017-12-03T18:45:23.269Z,0.00
2017-12-03T18:46:23.227Z,0.00
2017-12-03T18:47:23.176Z,0.00
2017-12-03T18:48:23.138Z,0.00
2017-12-03T18:49:23.100Z,0.00
2017-12-03T18:50:23.048Z,0.00
2017-12-03T18:51:23.010Z,0.00
2017-12-03T18:52:22.979Z,0.00
2017-12-03T18:53:22.931Z,0.00
2017-12-03T18:54:22.892Z,0.00
2017-12-03T18:55:22.841Z,0.00
2017-12-03T18:56:22.799Z,0.00
2017-12-03T18:57:22.770Z,0.00
2017-12-03T18:58:22.725Z,0.00
2017-12-03T18:59:22.678Z,0.00
2017-12-03T19:00:22.631Z,0.00
2017-12-03T19:01:22.587Z,0.00
2017-12-03T19:02:22.545Z,0.00
2017-12-03T19:03:22.509Z,0.00
2017-12-03T19:04:22.460Z,0.00
2017-12-03T19:05:22.421Z,0.00
2017-12-03T19:06:22.380Z,0.00
2017-12-03T19:07:22.338Z,0.00
2017-12-03T19:08:22.295Z,0.00
2017-12-03T19:09:22.250Z,0.00
2017-12-03T19:10:22.208Z,0.00
2017-12-03T19:11:22.169Z,0.00
2017-12-03T19:12:22.133Z,0.00
2017-12-03T19:13:22.084Z,0.00
2017-12-03T19:14:22.065Z,0.00
2017-12-03T19:15:21.998Z,0.00
2017-12-03T19:16:21.956Z,0.00
2017-12-03T19:17:21.912Z,0.00
2017-12-03T19:18:21.882Z,0.00
2017-12-03T19:19:21.828Z,0.00
2017-12-03T19:20:21.790Z,0.00
2017-12-03T19:21:21.746Z,0.00
2017-12-03T19:22:21.731Z,0.00
2017-12-03T19:23:21.670Z,0.00
2017-12-03T19:24:21.624Z,0.00
2017-12-03T19:25:21.585Z,0.00
2017-12-03T19:26:21.542Z,0.00
2017-12-03T19:27:21.496Z,0.00
2017-12-03T19:28:21.458Z,0.00
2017-12-03T19:29:21.426Z,0.00
2017-12-03T19:30:21.374Z,0.00
2017-12-03T19:31:21.323Z,0.00
2017-12-03T19:32:21.291Z,0.00
2017-12-03T19:33:21.240Z,0.00
2017-12-03T19:34:21.199Z,0.00
2017-12-03T19:35:21.160Z,0.00
2017-12-03T19:36:21.128Z,0.00
2017-12-03T19:37:21.070Z,0.00
2017-12-03T19:38:21.028Z,0.00
2017-12-03T19:39:20.991Z,0.00
2017-12-03T19:40:20.972Z,0.00
2017-12-03T19:41:20.909Z,0.00
2017-12-03T19:42:20.867Z,0.00
2017-12-03T19:43:20.825Z,0.00
2017-12-03T19:44:20.789Z,0.00
2017-12-03T19:45:20.742Z,0.00
2017-12-03T19:46:20.726Z,0.00
2017-12-03T19:47:20.656Z,0.00
2017-12-03T19:48:20.625Z,0.00
2017-12-03T19:49:20.576Z,0.00
2017-12-03T19:50:20.528Z,0.00
2017-12-03T19:51:20.489Z,0.00
2017-12-03T19:52:20.449Z,0.00
2017-12-03T19:53:20.416Z,0.00
2017-12-03T19:54:20.355Z,0.00
2017-12-03T19:55:20.319Z,0.00
2017-12-03T19:56:20.278Z,0.00
2017-12-03T19:57:20.244Z,0.00
2017-12-03T19:58:20.196Z,0.00
2017-12-03T19:59:20.212Z,0.00
2017-12-03T20:00:20.144Z,0.00
2017-12-03T20:01:20.089Z,0.00
2017-12-03T20:02:20.024Z,0.00
2017-12-03T20:03:19.994Z,0.00
2017-12-03T20:04:19.944Z,0.00
2017-12-03T20:05:19.904Z,0.00
2017-12-03T20:06:19.855Z,0.00
2017-12-03T20:07:19.834Z,0.00
2017-12-03T20:08:19.878Z,0.00
2017-12-03T20:09:19.732Z,0.00
2017-12-03T20:10:19.709Z,0.00
2017-12-03T20:11:19.665Z,0.00
2017-12-03T20:12:19.648Z,0.00
2017-12-03T20:13:19.625Z,0.00
2017-12-03T20:14:19.537Z,0.00
2017-12-03T20:15:19.478Z,0.00
2017-12-03T20:16:19.440Z,0.00
2017-12-03T20:17:19.404Z,0.00
2017-12-03T20:18:19.351Z,0.00
2017-12-03T20:19:19.309Z,0.00
2017-12-03T20:20:19.267Z,0.00
2017-12-03T20:21:19.219Z,0.00
2017-12-03T20:22:19.193Z,0.00
2017-12-03T20:23:19.146Z,0.00
2017-12-03T20:24:19.136Z,0.00
2017-12-03T20:25:19.068Z,0.00
2017-12-03T20:26:19.785Z,0.00
2017-12-03T20:27:18.974Z,0.00
2017-12-03T20:28:19.008Z,0.00
2017-12-03T20:29:18.888Z,0.00
2017-12-03T20:30:18.848Z,0.00
2017-12-03T20:31:18.825Z,0.00
2017-12-03T20:32:18.766Z,0.00
2017-12-03T20:33:18.722Z,0.00
2017-12-03T20:34:18.672Z,0.00
2017-12-03T20:35:18.732Z,0.00
2017-12-03T20:36:19.302Z,0.00
2017-12-03T20:37:18.607Z,0.00
2017-12-03T20:38:18.511Z,0.00
2017-12-03T20:39:18.466Z,0.00
2017-12-03T20:40:18.417Z,0.00
2017-12-03T20:41:18.382Z,0.00
2017-12-03T20:42:18.343Z,0.00
2017-12-03T20:43:18.302Z,0.00
2017-12-03T20:44:18.249Z,0.00
2017-12-03T20:45:18.208Z,0.00
2017-12-03T20:46:18.173Z,0.00
2017-12-03T20:47:18.125Z,0.00
2017-12-03T20:48:18.087Z,0.00
2017-12-03T20:49:18.076Z,0.00
2017-12-03T20:50:18.001Z,0.00
2017-12-03T20:51:17.963Z,0.00
2017-12-03T20:52:20.803Z,0.00
2017-12-03T20:53:17.877Z,0.00
2017-12-03T20:54:17.832Z,0.00
2017-12-03T20:55:17.785Z,0.00
2017-12-03T20:56:17.747Z,0.00
2017-12-03T20:57:17.707Z,0.00
2017-12-03T20:58:17.668Z,0.00
2017-12-03T20:59:17.617Z,0.00
2017-12-03T21:00:17.577Z,0.00
2017-12-03T21:01:17.543Z,0.00
2017-12-03T21:02:17.489Z,0.00
2017-12-03T21:03:17.449Z,0.00
2017-12-03T21:04:17.404Z,0.00
2017-12-03T21:05:17.362Z,0.00
2017-12-03T21:06:17.326Z,0.00
2017-12-03T21:07:17.275Z,0.00
2017-12-03T21:08:17.238Z,0.00
2017-12-03T21:09:17.193Z,0.00
2017-12-03T21:10:17.157Z,0.00
2017-12-03T21:11:17.117Z,0.00
2017-12-03T21:12:17.068Z,0.00
2017-12-03T21:13:17.046Z,0.00
2017-12-03T21:14:16.983Z,0.00
2017-12-03T21:15:16.940Z,0.00
2017-12-03T21:16:16.897Z,0.00
2017-12-03T21:17:16.856Z,0.00
2017-12-03T21:18:16.815Z,0.00
2017-12-03T21:19:16.782Z,0.00
2017-12-03T21:20:16.733Z,0.00
2017-12-03T21:21:16.687Z,0.00
2017-12-03T21:22:16.657Z,0.00
2017-12-03T21:23:16.602Z,0.00
2017-12-03T21:24:16.580Z,0.00
2017-12-03T21:25:16.519Z,0.00
2017-12-03T21:26:16.535Z,0.00
2017-12-03T21:27:16.436Z,0.00
2017-12-03T21:28:16.407Z,0.00
2017-12-03T21:29:16.351Z,0.00
2017-12-03T21:30:16.327Z,0.00
2017-12-03T21:31:16.266Z,0.00
2017-12-03T21:32:16.225Z,0.00
2017-12-03T21:33:16.202Z,0.00
2017-12-03T21:34:17.786Z,0.00
2017-12-03T21:35:16.102Z,0.00
2017-12-03T21:36:16.080Z,0.00
2017-12-03T21:37:16.028Z,0.00
2017-12-03T21:38:15.973Z,0.00
2017-12-03T21:39:15.938Z,0.00
2017-12-03T21:40:15.893Z,0.00
2017-12-03T21:41:15.858Z,0.00
2017-12-03T21:42:15.806Z,0.00
2017-12-03T21:43:15.759Z,0.00
2017-12-03T21:44:15.725Z,0.00
2017-12-03T21:45:15.683Z,0.00
2017-12-03T21:46:15.642Z,0.00
2017-12-03T21:47:15.594Z,0.00
2017-12-03T21:48:15.554Z,0.00
2017-12-03T21:49:15.532Z,0.00
2017-12-03T21:50:15.469Z,0.00
2017-12-03T21:51:16.270Z,0.00
2017-12-03T21:52:15.386Z,0.00
2017-12-03T21:53:15.343Z,0.00
2017-12-03T21:54:15.308Z,0.00
2017-12-03T21:55:15.273Z,0.00
2017-12-03T21:56:15.235Z,0.00
2017-12-03T21:57:15.174Z,0.00
2017-12-03T21:58:15.142Z,0.00
2017-12-03T21:59:15.086Z,0.00
2017-12-03T22:00:15.042Z,0.00
2017-12-03T22:01:15.009Z,0.00
2017-12-03T22:02:14.967Z,0.00
2017-12-03T22:03:14.927Z,0.00
2017-12-03T22:04:14.878Z,0.00
2017-12-03T22:05:14.843Z,0.00
2017-12-03T22:06:14.789Z,0.00
2017-12-03T22:07:14.757Z,0.00
2017-12-03T22:08:14.712Z,0.00
2017-12-03T22:09:14.664Z,0.00
2017-12-03T22:10:14.622Z,0.00
2017-12-03T22:11:14.581Z,0.00
2017-12-03T22:12:14.544Z,0.00
2017-12-03T22:13:14.493Z,0.00
2017-12-03T22:14:14.459Z,0.00
2017-12-03T22:15:14.419Z,0.00
2017-12-03T22:16:14.379Z,0.00
2017-12-03T22:17:14.336Z,0.00
2017-12-03T22:18:14.286Z,0.00
2017-12-03T22:19:14.246Z,0.00
2017-12-03T22:20:14.198Z,0.00
2017-12-03T22:21:14.775Z,0.00
2017-12-03T22:22:14.125Z,0.00
2017-12-03T22:23:14.114Z,0.00
2017-12-03T22:24:14.794Z,0.00
2017-12-03T22:25:15.789Z,0.00
2017-12-03T22:26:14.175Z,0.00
2017-12-03T22:27:13.933Z,0.00
2017-12-03T22:28:13.974Z,0.00
2017-12-03T22:29:13.825Z,0.00
2017-12-03T22:30:13.811Z,0.00
2017-12-03T22:31:13.770Z,0.00
2017-12-03T22:32:13.694Z,0.00
2017-12-03T22:33:13.946Z,0.00
2017-12-03T22:34:13.621Z,0.00
2017-12-03T22:35:13.582Z,0.00
2017-12-03T22:36:13.534Z,0.00
2017-12-03T22:37:13.493Z,0.00
2017-12-03T22:38:13.501Z,0.00
2017-12-03T22:39:15.269Z,0.00
2017-12-03T22:40:13.477Z,0.00
2017-12-03T22:41:14.299Z,0.00
2017-12-03T22:42:13.793Z,0.00
2017-12-03T22:43:13.240Z,0.00
2017-12-03T22:44:13.240Z,0.00
2017-12-03T22:45:13.197Z,0.00
2017-12-03T22:46:13.118Z,0.00
2017-12-03T22:47:13.093Z,0.00
2017-12-03T22:48:13.037Z,0.00
2017-12-03T22:49:12.993Z,0.00
2017-12-03T22:50:12.947Z,0.00
2017-12-03T22:51:13.377Z,0.00
2017-12-03T22:52:12.861Z,0.00
2017-12-03T22:53:13.779Z,0.00
2017-12-03T22:54:12.806Z,0.00
2017-12-03T22:55:13.205Z,0.00
2017-12-03T22:56:12.867Z,0.00
2017-12-03T22:57:13.298Z,0.00
2017-12-03T22:58:12.638Z,0.00
2017-12-03T22:59:12.581Z,0.00
2017-12-03T23:00:12.519Z,0.00
2017-12-03T23:01:12.593Z,0.00
2017-12-03T23:02:12.462Z,0.00
2017-12-03T23:03:12.426Z,0.00
2017-12-03T23:04:14.310Z,0.00
2017-12-03T23:05:12.324Z,0.00
2017-12-03T23:06:12.268Z,0.00
2017-12-03T23:07:12.258Z,0.00
2017-12-03T23:08:12.216Z,0.00
2017-12-03T23:09:12.145Z,0.00
2017-12-03T23:10:12.101Z,0.00
2017-12-03T23:11:12.061Z,0.00
2017-12-03T23:12:12.042Z,0.00
2017-12-03T23:13:11.972Z,0.00
2017-12-03T23:14:11.928Z,0.00
2017-12-03T23:15:11.891Z,0.00
2017-12-03T23:16:11.847Z,0.00
2017-12-03T23:17:11.805Z,0.00
2017-12-03T23:18:11.765Z,0.00
2017-12-03T23:19:11.721Z,0.00
2017-12-03T23:20:11.679Z,0.00
2017-12-03T23:21:11.650Z,0.00
2017-12-03T23:22:11.597Z,0.00
2017-12-03T23:23:11.754Z,0.00
2017-12-03T23:24:11.513Z,0.00
2017-12-03T23:25:11.473Z,0.00
2017-12-03T23:26:11.428Z,0.00
2017-12-03T23:27:11.383Z,0.00
2017-12-03T23:28:11.346Z,0.00
2017-12-03T23:29:11.300Z,0.00
2017-12-03T23:30:11.260Z,0.00
2017-12-03T23:31:11.217Z,0.00
2017-12-03T23:32:11.179Z,0.00
2017-12-03T23:33:11.133Z,0.00
2017-12-03T23:34:11.094Z,0.00
2017-12-03T23:35:11.060Z,0.00
2017-12-03T23:36:11.012Z,0.00
2017-12-03T23:37:10.967Z,0.00
2017-12-03T23:38:10.923Z,0.00
2017-12-03T23:39:10.881Z,0.00
2017-12-03T23:40:10.839Z,0.00
2017-12-03T23:41:10.804Z,0.00
2017-12-03T23:42:10.769Z,0.00
2017-12-03T23:43:10.722Z,0.00
2017-12-03T23:44:10.675Z,0.00
2017-12-03T23:45:10.629Z,0.00
2017-12-03T23:46:10.594Z,0.00
2017-12-03T23:47:10.550Z,0.00
2017-12-03T23:48:10.504Z,0.00
2017-12-03T23:49:10.469Z,0.00
2017-12-03T23:50:10.428Z,0.00
2017-12-03T23:51:10.446Z,0.00
2017-12-03T23:52:10.349Z,0.00
2017-12-03T23:53:10.295Z,0.00
2017-12-03T23:54:10.259Z,0.00
2017-12-03T23:55:10.211Z,0.00
2017-12-03T23:56:10.171Z,0.00
2017-12-03T23:57:10.127Z,0.00
2017-12-03T23:58:10.109Z,0.00
2017-12-03T23:59:10.045Z,0.00
